createdAt,value
2019-02-21T00:01:44.746Z,1.10
2019-02-21T00:04:14.201Z,1.10
2019-02-21T00:06:44.048Z,1.00
2019-02-21T00:09:13.508Z,1.00
2019-02-21T00:11:42.960Z,1.00
2019-02-21T00:14:12.844Z,1.00
2019-02-21T00:16:42.336Z,0.90
2019-02-21T00:19:11.884Z,0.90
2019-02-21T00:21:41.341Z,0.90
2019-02-21T00:24:10.804Z,0.80
2019-02-21T00:26:40.299Z,0.80
2019-02-21T00:29:09.757Z,0.80
2019-02-21T00:31:40.147Z,0.70
2019-02-21T00:34:09.705Z,0.70
2019-02-21T00:36:39.194Z,0.60
2019-02-21T00:39:08.841Z,0.60
2019-02-21T00:41:38.341Z,0.50
2019-02-21T00:44:07.837Z,0.50
2019-02-21T00:46:37.296Z,0.50
2019-02-21T00:49:06.808Z,0.40
2019-02-21T00:51:36.280Z,0.40
2019-02-21T00:54:05.787Z,0.40
2019-02-21T00:56:35.279Z,0.40
2019-02-21T00:59:04.782Z,0.30
2019-02-21T01:01:34.437Z,0.30
2019-02-21T01:04:03.894Z,0.40
2019-02-21T01:06:33.380Z,0.40
2019-02-21T01:09:02.988Z,0.40
2019-02-21T01:11:32.496Z,0.40
2019-02-21T01:14:02.012Z,0.40
2019-02-21T01:16:31.448Z,0.40
2019-02-21T01:19:02.214Z,0.30
2019-02-21T01:21:31.677Z,0.30
2019-02-21T01:24:01.362Z,0.30
2019-02-21T01:26:30.817Z,0.30
2019-02-21T01:29:00.308Z,0.30
2019-02-21T01:31:29.772Z,0.30
2019-02-21T01:33:59.263Z,0.20
2019-02-21T01:36:28.752Z,0.20
2019-02-21T01:38:58.232Z,0.20
2019-02-21T01:41:27.741Z,0.20
2019-02-21T01:43:57.256Z,0.20
2019-02-21T01:46:26.724Z,0.20
2019-02-21T01:48:56.367Z,0.10
2019-02-21T01:51:25.852Z,0.10
2019-02-21T01:53:55.424Z,0.10
2019-02-21T01:56:24.904Z,0.20
2019-02-21T01:58:54.364Z,0.10
2019-02-21T02:01:23.855Z,0.10
2019-02-21T02:03:53.308Z,0.10
2019-02-21T02:06:22.794Z,0.10
2019-02-21T02:08:52.265Z,0.10
2019-02-21T02:11:22.967Z,0.10
2019-02-21T02:13:52.397Z,0.10
2019-02-21T02:16:21.872Z,0.00
2019-02-21T02:18:51.373Z,0.00
2019-02-21T02:21:20.837Z,0.00
2019-02-21T02:23:50.323Z,0.00
2019-02-21T02:26:19.788Z,0.00
2019-02-21T02:28:49.325Z,0.00
2019-02-21T02:31:23.201Z,0.00
2019-02-21T02:33:49.845Z,-0.10
2019-02-21T02:36:19.344Z,-0.10
2019-02-21T02:38:48.831Z,-0.10
2019-02-21T02:41:18.323Z,-0.20
2019-02-21T02:43:47.812Z,-0.20
2019-02-21T02:46:17.320Z,-0.20
2019-02-21T02:48:46.779Z,-0.20
2019-02-21T02:51:16.243Z,-0.30
2019-02-21T02:53:45.781Z,-0.30
2019-02-21T02:56:15.244Z,-0.30
2019-02-21T02:58:45.602Z,-0.30
2019-02-21T03:01:15.206Z,-0.30
2019-02-21T03:03:44.703Z,-0.30
2019-02-21T03:06:14.160Z,-0.30
2019-02-21T03:08:43.620Z,-0.40
2019-02-21T03:11:13.112Z,-0.40
2019-02-21T03:13:42.572Z,-0.50
2019-02-21T03:16:12.061Z,-0.50
2019-02-21T03:18:41.561Z,-0.50
2019-02-21T03:21:11.120Z,-0.50
2019-02-21T03:23:40.584Z,-0.50
2019-02-21T03:26:10.292Z,-0.60
2019-02-21T03:28:39.772Z,-0.60
2019-02-21T03:31:09.443Z,-0.60
2019-02-21T03:33:38.926Z,-0.60
2019-02-21T03:36:08.393Z,-0.70
2019-02-21T03:38:37.930Z,-0.60
2019-02-21T03:41:07.945Z,-0.70
2019-02-21T03:43:37.443Z,-0.70
2019-02-21T03:46:06.921Z,-0.70
2019-02-21T03:48:36.389Z,-0.70
2019-02-21T03:51:05.872Z,-0.70
2019-02-21T03:53:35.446Z,-0.70
2019-02-21T03:56:05.027Z,-0.70
2019-02-21T03:58:34.476Z,-0.80
2019-02-21T04:01:04.045Z,-0.80
2019-02-21T04:03:33.540Z,-0.80
2019-02-21T04:06:03.013Z,-0.80
2019-02-21T04:08:32.515Z,-0.80
2019-02-21T04:11:01.992Z,-0.80
2019-02-21T04:13:31.497Z,-0.80
2019-02-21T04:16:01.140Z,-0.80
2019-02-21T04:18:30.643Z,-0.80
2019-02-21T04:21:00.136Z,-0.80
2019-02-21T04:23:29.668Z,-0.80
2019-02-21T04:25:59.157Z,-0.90
2019-02-21T04:28:28.627Z,-0.90
2019-02-21T04:30:58.141Z,-0.90
2019-02-21T04:33:27.679Z,-0.90
2019-02-21T04:35:59.259Z,-0.90
2019-02-21T04:38:28.416Z,-0.90
2019-02-21T04:40:57.880Z,-0.90
2019-02-21T04:43:27.370Z,-1.00
2019-02-21T04:45:56.885Z,-1.00
2019-02-21T04:51:01.918Z,-1.10
2019-02-21T04:53:31.383Z,-1.10
2019-02-21T04:56:01.034Z,-1.10
2019-02-21T04:58:30.500Z,-1.00
2019-02-21T05:00:59.974Z,-1.00
2019-02-21T05:03:33.347Z,-1.00
2019-02-21T05:06:02.844Z,-1.00
2019-02-21T05:08:32.416Z,-1.00
2019-02-21T05:11:01.887Z,-1.00
2019-02-21T05:13:33.622Z,-1.10
2019-02-21T05:16:02.498Z,-1.10
2019-02-21T05:18:32.033Z,-1.10
2019-02-21T05:21:01.492Z,-1.00
2019-02-21T05:23:31.074Z,-1.10
2019-02-21T05:26:00.556Z,-1.10
2019-02-21T05:28:31.348Z,-1.10
2019-02-21T05:31:07.473Z,-1.10
2019-02-21T05:33:58.678Z,-1.10
2019-02-21T05:37:02.099Z,-1.10
2019-02-21T05:39:39.814Z,-1.10
2019-02-21T05:42:30.870Z,-1.10
2019-02-21T05:45:13.378Z,-1.10
2019-02-21T05:48:01.132Z,-1.10
2019-02-21T05:51:00.680Z,-1.10
2019-02-21T05:53:34.512Z,-1.20
2019-02-21T05:56:26.126Z,-1.20
2019-02-21T05:59:14.519Z,-1.20
2019-02-21T06:02:02.948Z,-1.20
2019-02-21T06:04:52.041Z,-1.20
2019-02-21T06:07:39.026Z,-1.20
2019-02-21T06:10:36.411Z,-1.20
2019-02-21T06:13:20.241Z,-1.20
2019-02-21T06:16:11.272Z,-1.20
2019-02-21T06:18:57.216Z,-1.20
2019-02-21T06:21:34.980Z,-1.20
2019-02-21T06:24:32.164Z,-1.20
2019-02-21T06:27:16.460Z,-1.20
2019-02-21T06:29:52.036Z,-1.30
2019-02-21T06:32:21.544Z,-1.20
2019-02-21T06:34:52.489Z,-1.00
2019-02-21T06:37:21.981Z,-0.90
2019-02-21T06:39:51.491Z,-0.80
2019-02-21T06:42:20.988Z,-0.70
2019-02-21T06:44:50.529Z,-0.60
2019-02-21T06:47:20.081Z,-0.40
2019-02-21T06:49:49.598Z,-0.40
2019-02-21T06:52:19.064Z,-0.30
2019-02-21T06:54:48.565Z,-0.10
2019-02-21T06:57:18.028Z,0.10
2019-02-21T06:59:47.556Z,0.20
2019-02-21T07:02:17.052Z,0.50
2019-02-21T07:04:46.549Z,0.40
2019-02-21T07:07:16.049Z,0.20
2019-02-21T07:09:45.551Z,0.40
2019-02-21T07:12:15.040Z,0.40
2019-02-21T07:14:44.540Z,0.40
2019-02-21T07:17:14.037Z,0.40
2019-02-21T07:19:43.562Z,0.40
2019-02-21T07:22:17.654Z,0.50
2019-02-21T07:24:45.296Z,0.70
2019-02-21T07:27:14.805Z,0.70
2019-02-21T07:29:44.282Z,0.90
2019-02-21T07:32:13.770Z,0.90
2019-02-21T07:34:43.254Z,1.00
2019-02-21T07:37:18.529Z,1.10
2019-02-21T07:39:43.893Z,1.10
2019-02-21T07:42:13.365Z,1.20
2019-02-21T07:44:45.312Z,1.50
2019-02-21T07:47:14.052Z,1.50
2019-02-21T07:49:43.620Z,1.50
2019-02-21T07:52:13.104Z,1.60
2019-02-21T07:54:42.600Z,1.60
2019-02-21T07:57:12.078Z,1.70
2019-02-21T07:59:41.583Z,1.60
2019-02-21T08:02:11.069Z,1.80
2019-02-21T08:04:40.645Z,1.70
2019-02-21T08:07:10.119Z,1.80
2019-02-21T08:09:41.598Z,1.90
2019-02-21T08:12:10.733Z,2.00
2019-02-21T08:14:40.205Z,1.90
2019-02-21T08:17:09.672Z,2.20
2019-02-21T08:19:39.249Z,2.20
2019-02-21T08:22:08.655Z,2.20
2019-02-21T08:24:38.120Z,2.30
2019-02-21T08:27:07.688Z,2.40
2019-02-21T08:29:38.050Z,2.60
2019-02-21T08:32:07.551Z,2.60
2019-02-21T08:34:43.484Z,2.70
2019-02-21T08:37:12.978Z,2.90
2019-02-21T08:39:42.455Z,3.10
2019-02-21T08:42:12.040Z,3.20
2019-02-21T08:44:41.492Z,3.30
2019-02-21T08:47:10.953Z,3.30
2019-02-21T08:49:40.465Z,3.40
2019-02-21T08:52:09.941Z,3.40
2019-02-21T08:54:39.425Z,3.50
2019-02-21T08:57:08.906Z,3.60
2019-02-21T08:59:38.416Z,3.80
2019-02-21T09:02:07.989Z,4.10
2019-02-21T09:04:37.502Z,4.30
2019-02-21T09:07:06.949Z,4.40
2019-02-21T09:09:36.444Z,4.70
2019-02-21T09:12:06.105Z,4.80
2019-02-21T09:14:35.583Z,4.80
2019-02-21T09:17:05.093Z,4.80
2019-02-21T09:19:36.723Z,4.90
2019-02-21T09:22:05.664Z,5.10
2019-02-21T09:24:38.701Z,5.40
2019-02-21T09:27:06.261Z,5.50
2019-02-21T09:29:35.752Z,5.80
2019-02-21T09:32:06.911Z,5.90
2019-02-21T09:34:36.544Z,6.10
2019-02-21T09:37:06.012Z,6.30
2019-02-21T09:39:35.508Z,6.50
2019-02-21T09:42:05.075Z,6.60
2019-02-21T09:44:35.911Z,6.80
2019-02-21T09:47:05.485Z,7.00
2019-02-21T09:49:34.947Z,7.20
2019-02-21T09:52:04.405Z,7.40
2019-02-21T09:54:33.885Z,7.60
2019-02-21T09:57:12.885Z,7.80
2019-02-21T09:59:34.473Z,7.90
2019-02-21T10:02:03.936Z,8.10
2019-02-21T10:04:33.405Z,8.40
2019-02-21T10:07:02.917Z,8.80
2019-02-21T10:09:32.460Z,9.30
2019-02-21T10:12:02.049Z,9.50
2019-02-21T10:14:31.579Z,9.60
2019-02-21T10:17:01.086Z,9.70
2019-02-21T10:19:30.639Z,9.90
2019-02-21T10:22:00.152Z,10.10
2019-02-21T10:24:29.695Z,10.20
2019-02-21T10:26:59.218Z,10.30
2019-02-21T10:29:29.759Z,10.30
2019-02-21T10:31:59.494Z,10.50
2019-02-21T10:34:29.003Z,10.50
2019-02-21T10:36:58.545Z,10.70
2019-02-21T10:39:28.079Z,10.50
2019-02-21T10:41:57.649Z,10.60
2019-02-21T10:44:27.219Z,10.70
2019-02-21T10:46:56.740Z,10.70
2019-02-21T10:49:26.314Z,10.90
2019-02-21T10:51:55.855Z,11.00
2019-02-21T10:54:25.569Z,11.10
2019-02-21T10:56:55.122Z,11.10
2019-02-21T10:59:24.651Z,11.00
2019-02-21T11:01:54.332Z,11.00
2019-02-21T11:04:23.833Z,11.10
2019-02-21T11:06:53.381Z,11.00
2019-02-21T11:09:23.754Z,11.00
2019-02-21T11:11:53.319Z,11.00
2019-02-21T11:14:22.857Z,10.70
2019-02-21T11:16:52.386Z,10.80
2019-02-21T11:19:21.944Z,10.80
2019-02-21T11:21:51.457Z,10.90
2019-02-21T11:24:21.006Z,10.90
2019-02-21T11:26:50.534Z,10.90
2019-02-21T11:29:20.087Z,11.00
2019-02-21T11:31:49.638Z,11.10
2019-02-21T11:34:19.162Z,10.90
2019-02-21T11:36:48.746Z,11.00
2019-02-21T11:39:18.262Z,11.20
2019-02-21T11:41:47.780Z,11.30
2019-02-21T11:44:17.357Z,11.40
2019-02-21T11:46:46.871Z,11.20
2019-02-21T11:49:16.457Z,11.10
2019-02-21T11:51:46.034Z,11.10
2019-02-21T11:54:24.216Z,11.00
2019-02-21T11:56:46.742Z,11.00
2019-02-21T11:59:16.289Z,11.10
2019-02-21T12:01:45.823Z,11.20
2019-02-21T12:04:15.350Z,11.20
2019-02-21T12:06:44.867Z,11.30
2019-02-21T12:09:14.414Z,11.30
2019-02-21T12:11:43.926Z,11.30
2019-02-21T12:14:13.555Z,11.40
2019-02-21T12:16:43.075Z,11.20
2019-02-21T12:19:12.978Z,11.20
2019-02-21T12:21:42.514Z,11.20
2019-02-21T12:24:12.026Z,11.20
2019-02-21T12:26:41.570Z,11.10
2019-02-21T12:29:11.084Z,11.10
2019-02-21T12:31:40.601Z,11.20
2019-02-21T12:34:10.177Z,11.20
2019-02-21T12:36:39.696Z,11.30
2019-02-21T12:39:09.351Z,11.10
2019-02-21T12:41:38.871Z,11.10
2019-02-21T12:44:08.431Z,11.00
2019-02-21T12:46:37.946Z,10.90
2019-02-21T12:49:07.571Z,10.80
2019-02-21T12:51:37.167Z,10.80
2019-02-21T12:54:06.718Z,10.60
2019-02-21T12:56:36.238Z,10.60
2019-02-21T12:59:05.791Z,10.60
2019-02-21T13:01:35.327Z,10.50
2019-02-21T13:04:04.934Z,10.50
2019-02-21T13:06:34.446Z,10.50
2019-02-21T13:09:05.005Z,10.50
2019-02-21T13:11:35.549Z,10.40
2019-02-21T13:14:05.190Z,10.50
2019-02-21T13:16:34.754Z,10.50
2019-02-21T13:19:04.267Z,10.60
2019-02-21T13:21:33.822Z,10.60
2019-02-21T13:24:03.368Z,10.50
2019-02-21T13:26:32.884Z,10.60
2019-02-21T13:29:02.436Z,10.50
2019-02-21T13:31:31.985Z,10.50
2019-02-21T13:34:01.567Z,10.50
2019-02-21T13:36:33.858Z,10.60
2019-02-21T13:39:02.291Z,10.60
2019-02-21T13:41:31.820Z,10.40
2019-02-21T13:44:01.342Z,10.50
2019-02-21T13:46:37.261Z,10.50
2019-02-21T13:49:02.091Z,10.50
2019-02-21T13:51:31.634Z,10.40
2019-02-21T13:54:01.168Z,10.50
2019-02-21T13:56:30.800Z,10.40
2019-02-21T13:59:00.325Z,10.40
2019-02-21T14:01:29.827Z,10.30
2019-02-21T14:03:59.383Z,10.30
2019-02-21T14:06:28.893Z,10.30
2019-02-21T14:08:58.439Z,10.40
2019-02-21T14:11:30.627Z,10.30
2019-02-21T14:13:59.106Z,10.20
2019-02-21T14:16:28.666Z,10.20
2019-02-21T14:18:58.261Z,10.20
2019-02-21T14:21:27.815Z,10.20
2019-02-21T14:23:57.330Z,10.20
2019-02-21T14:26:28.868Z,10.10
2019-02-21T14:28:58.070Z,10.20
2019-02-21T14:31:27.594Z,10.10
2019-02-21T14:33:59.136Z,10.10
2019-02-21T14:36:29.100Z,10.20
2019-02-21T14:38:58.984Z,10.30
2019-02-21T14:41:28.472Z,10.30
2019-02-21T14:44:00.414Z,10.30
2019-02-21T14:46:29.211Z,10.20
2019-02-21T14:48:58.783Z,10.30
2019-02-21T14:51:28.325Z,10.20
2019-02-21T14:53:57.898Z,10.20
2019-02-21T14:56:27.417Z,10.30
2019-02-21T14:58:56.970Z,10.40
2019-02-21T15:01:26.518Z,10.40
2019-02-21T15:03:56.074Z,10.30
2019-02-21T15:06:27.329Z,10.30
2019-02-21T15:08:56.821Z,10.30
2019-02-21T15:11:26.366Z,10.30
2019-02-21T15:13:55.997Z,10.20
2019-02-21T15:16:25.526Z,10.10
2019-02-21T15:18:55.428Z,10.10
2019-02-21T15:21:25.055Z,10.10
2019-02-21T15:23:54.601Z,9.90
2019-02-21T15:26:24.370Z,9.90
2019-02-21T15:28:53.931Z,9.80
2019-02-21T15:31:23.450Z,9.80
2019-02-21T15:33:53.009Z,9.80
2019-02-21T15:36:22.538Z,9.60
2019-02-21T15:38:52.075Z,9.60
2019-02-21T15:41:21.577Z,9.70
2019-02-21T15:43:51.144Z,9.60
2019-02-21T15:46:20.642Z,9.60
2019-02-21T15:48:50.189Z,9.70
2019-02-21T15:51:19.704Z,9.60
2019-02-21T15:53:49.308Z,9.70
2019-02-21T15:58:54.843Z,9.50
2019-02-21T16:01:24.482Z,9.60
2019-02-21T16:03:53.986Z,9.50
2019-02-21T16:06:23.502Z,9.40
2019-02-21T16:08:53.062Z,9.30
2019-02-21T16:11:22.521Z,9.30
2019-02-21T16:14:02.676Z,9.30
2019-02-21T16:16:23.135Z,9.20
2019-02-21T16:18:52.616Z,9.20
2019-02-21T16:21:22.094Z,9.20
2019-02-21T16:23:51.554Z,9.20
2019-02-21T16:26:21.057Z,9.20
2019-02-21T16:28:50.512Z,9.20
2019-02-21T16:31:20.039Z,9.20
2019-02-21T16:33:49.495Z,9.20
2019-02-21T16:36:19.000Z,9.10
2019-02-21T16:38:48.483Z,9.00
2019-02-21T16:41:18.002Z,8.90
2019-02-21T16:43:47.768Z,8.70
2019-02-21T16:46:17.241Z,8.70
2019-02-21T16:48:46.720Z,8.70
2019-02-21T16:51:16.225Z,8.60
2019-02-21T16:53:45.744Z,8.60
2019-02-21T16:56:15.233Z,8.50
2019-02-21T16:58:44.716Z,8.40
2019-02-21T17:01:14.313Z,8.30
2019-02-21T17:03:43.797Z,8.30
2019-02-21T17:06:13.284Z,8.20
2019-02-21T17:08:42.780Z,8.10
2019-02-21T17:11:12.258Z,8.00
2019-02-21T17:13:41.779Z,7.90
2019-02-21T17:16:11.255Z,7.80
2019-02-21T17:18:40.724Z,7.70
2019-02-21T17:21:10.250Z,7.50
2019-02-21T17:23:39.726Z,7.40
2019-02-21T17:26:09.333Z,7.40
2019-02-21T17:28:38.798Z,7.40
2019-02-21T17:31:08.390Z,7.40
2019-02-21T17:33:37.924Z,7.30
2019-02-21T17:36:07.391Z,7.30
2019-02-21T17:38:36.884Z,7.30
2019-02-21T17:41:06.354Z,7.20
2019-02-21T17:43:35.853Z,7.20
2019-02-21T17:46:05.325Z,7.20
2019-02-21T17:48:34.833Z,7.20
2019-02-21T17:51:04.327Z,7.20
2019-02-21T17:53:33.931Z,7.20
2019-02-21T17:56:03.395Z,7.10
2019-02-21T17:58:32.850Z,7.10
2019-02-21T18:01:02.352Z,7.10
2019-02-21T18:03:33.786Z,7.00
2019-02-21T18:06:02.960Z,7.00
2019-02-21T18:08:32.424Z,7.00
2019-02-21T18:11:01.953Z,7.00
2019-02-21T18:13:31.420Z,6.90
2019-02-21T18:18:35.677Z,6.80
2019-02-21T18:21:05.132Z,6.80
2019-02-21T18:23:34.638Z,6.80
2019-02-21T18:26:17.481Z,6.80
2019-02-21T18:28:47.116Z,6.70
2019-02-21T18:31:16.616Z,6.70
2019-02-21T18:33:46.105Z,6.70
2019-02-21T18:36:15.607Z,6.70
2019-02-21T18:38:45.104Z,6.70
2019-02-21T18:41:14.590Z,6.70
2019-02-21T18:43:44.057Z,6.70
2019-02-21T18:46:13.561Z,6.80
2019-02-21T18:48:43.022Z,6.80
2019-02-21T18:51:12.753Z,6.80
2019-02-21T18:53:42.240Z,6.90
2019-02-21T18:56:11.730Z,7.10
2019-02-21T18:58:41.198Z,7.10
2019-02-21T19:01:10.695Z,7.20
2019-02-21T19:03:40.220Z,7.30
2019-02-21T19:06:09.728Z,7.40
2019-02-21T19:08:39.188Z,7.40
2019-02-21T19:11:08.712Z,7.50
2019-02-21T19:13:38.176Z,7.50
2019-02-21T19:16:07.715Z,7.60
2019-02-21T19:18:37.212Z,7.60
2019-02-21T19:21:06.820Z,7.70
2019-02-21T19:23:36.289Z,7.70
2019-02-21T19:26:05.761Z,7.70
2019-02-21T19:28:35.248Z,7.80
2019-02-21T19:31:13.577Z,7.80
2019-02-21T19:33:43.161Z,7.80
2019-02-21T19:36:12.616Z,7.80
2019-02-21T19:38:42.154Z,7.90
2019-02-21T19:41:11.608Z,7.90
2019-02-21T19:43:41.133Z,7.90
2019-02-21T19:46:10.688Z,8.00
2019-02-21T19:48:40.169Z,8.00
2019-02-21T19:51:12.396Z,8.00
2019-02-21T19:53:41.900Z,8.00
2019-02-21T19:56:11.780Z,8.00
2019-02-21T19:58:41.285Z,8.00
2019-02-21T20:01:10.736Z,8.00
2019-02-21T20:06:16.358Z,8.00
2019-02-21T20:08:45.996Z,8.00
2019-02-21T20:11:15.513Z,8.00
2019-02-21T20:13:45.466Z,8.00
2019-02-21T20:16:21.320Z,7.80
2019-02-21T20:18:56.050Z,7.80
2019-02-21T20:21:25.541Z,7.70
2019-02-21T20:23:55.003Z,7.60
2019-02-21T20:26:24.456Z,7.60
2019-02-21T20:28:55.130Z,7.50
2019-02-21T20:31:24.858Z,7.50
2019-02-21T20:33:54.352Z,7.50
2019-02-21T20:36:23.856Z,7.40
2019-02-21T20:38:53.471Z,7.30
2019-02-21T20:41:22.890Z,7.30
2019-02-21T20:43:52.363Z,7.20
2019-02-21T20:46:21.893Z,7.20
2019-02-21T20:48:51.349Z,7.20
2019-02-21T20:51:20.854Z,7.20
2019-02-21T20:53:50.360Z,7.10
2019-02-21T20:56:19.904Z,7.10
2019-02-21T20:58:49.365Z,7.00
2019-02-21T21:01:19.765Z,7.00
2019-02-21T21:03:49.267Z,7.10
2019-02-21T21:06:18.811Z,7.10
2019-02-21T21:08:48.285Z,7.00
2019-02-21T21:11:17.763Z,7.00
2019-02-21T21:13:47.264Z,7.00
2019-02-21T21:16:16.738Z,6.90
2019-02-21T21:18:46.241Z,6.90
2019-02-21T21:21:15.711Z,6.90
2019-02-21T21:23:45.201Z,7.00
2019-02-21T21:26:14.688Z,6.90
2019-02-21T21:28:44.189Z,6.90
2019-02-21T21:31:15.295Z,6.90
2019-02-21T21:33:44.901Z,6.90
2019-02-21T21:36:14.359Z,6.80
2019-02-21T21:38:53.444Z,6.90
2019-02-21T21:41:15.168Z,6.90
2019-02-21T21:43:44.682Z,6.80
2019-02-21T21:46:14.178Z,6.90
2019-02-21T21:48:43.666Z,6.90
2019-02-21T21:51:13.811Z,6.80
2019-02-21T21:53:43.460Z,6.80
2019-02-21T21:56:18.162Z,6.90
2019-02-21T21:58:47.613Z,7.00
2019-02-21T22:01:17.100Z,7.10
2019-02-21T22:03:46.612Z,7.10
2019-02-21T22:06:16.080Z,7.20
2019-02-21T22:08:46.229Z,7.30
2019-02-21T22:13:44.622Z,7.50
2019-02-21T22:16:14.073Z,7.50
2019-02-21T22:18:43.535Z,7.70
2019-02-21T22:21:13.013Z,7.70
2019-02-21T22:23:42.485Z,7.70
2019-02-21T22:26:11.976Z,7.80
2019-02-21T22:28:41.446Z,7.80
2019-02-21T22:31:10.950Z,7.80
2019-02-21T22:33:40.408Z,7.90
2019-02-21T22:36:09.873Z,7.90
2019-02-21T22:38:39.353Z,7.90
2019-02-21T22:41:08.808Z,8.00
2019-02-21T22:43:38.313Z,8.00
2019-02-21T22:46:07.779Z,8.00
2019-02-21T22:48:47.000Z,8.00
2019-02-21T22:51:08.373Z,8.00
2019-02-21T22:53:37.832Z,8.00
2019-02-21T22:56:07.336Z,8.00
2019-02-21T22:58:44.810Z,8.00
2019-02-21T23:01:24.152Z,8.00
2019-02-21T23:04:19.695Z,8.10
2019-02-21T23:07:17.977Z,8.10
2019-02-21T23:09:47.442Z,8.20
2019-02-21T23:12:16.952Z,8.20
2019-02-21T23:14:46.420Z,8.20
2019-02-21T23:17:15.910Z,8.30
2019-02-21T23:19:45.348Z,8.30
2019-02-21T23:22:14.844Z,8.40
2019-02-21T23:24:44.312Z,8.40
2019-02-21T23:27:13.790Z,8.40
2019-02-21T23:29:43.255Z,8.40
2019-02-21T23:32:12.734Z,8.40
2019-02-21T23:34:45.589Z,8.50
2019-02-21T23:37:15.098Z,8.50
2019-02-21T23:39:44.564Z,8.50
2019-02-21T23:42:14.156Z,8.50
2019-02-21T23:44:43.631Z,8.40
2019-02-21T23:47:13.108Z,8.50
2019-02-21T23:49:42.600Z,8.40
2019-02-21T23:52:12.073Z,8.40
2019-02-21T23:54:41.589Z,8.40
2019-02-21T23:57:11.094Z,8.40
2019-02-21T23:59:40.560Z,8.30
